createdAt,value
2019-01-16T00:03:06.447Z,89.4
2019-01-16T00:08:06.470Z,89.8
2019-01-16T00:13:06.644Z,89.5
2019-01-16T00:18:06.482Z,89.4
2019-01-16T00:23:06.474Z,89.9
2019-01-16T00:28:06.631Z,89.2
2019-01-16T00:33:06.524Z,89.3
2019-01-16T00:38:06.471Z,89.3
2019-01-16T00:43:06.494Z,89.4
2019-01-16T00:48:06.506Z,88.3
2019-01-16T00:53:06.447Z,89
2019-01-16T00:58:06.644Z,89.5
2019-01-16T01:03:06.676Z,89.1
2019-01-16T01:08:06.511Z,89.5
2019-01-16T01:13:06.642Z,89.4
2019-01-16T01:18:06.669Z,90
2019-01-16T01:23:06.719Z,89.2
2019-01-16T01:28:06.644Z,89.8
2019-01-16T01:33:06.501Z,90.2
2019-01-16T01:38:06.721Z,89.4
2019-01-16T01:43:06.642Z,89.4
2019-01-16T01:48:06.641Z,88.8
2019-01-16T01:53:06.710Z,89.7
2019-01-16T01:58:06.641Z,89.9
2019-01-16T02:03:06.672Z,89.6
2019-01-16T02:08:06.541Z,89.6
2019-01-16T02:13:06.536Z,89.6
2019-01-16T02:18:06.671Z,89.5
2019-01-16T02:23:06.712Z,89.9
2019-01-16T02:28:06.745Z,89.9
2019-01-16T02:33:06.785Z,90.2
2019-01-16T02:38:06.518Z,89.2
2019-01-16T02:43:06.559Z,89.2
2019-01-16T02:48:06.552Z,89.9
2019-01-16T02:53:06.715Z,88.5
2019-01-16T02:58:06.554Z,88.5
2019-01-16T03:03:06.575Z,88.3
2019-01-16T03:08:06.703Z,88.7
2019-01-16T03:13:06.571Z,89
2019-01-16T03:18:06.599Z,88.9
2019-01-16T03:23:06.697Z,88.4
2019-01-16T03:28:06.766Z,88.6
2019-01-16T03:33:06.879Z,89.4
2019-01-16T03:38:06.697Z,89.2
2019-01-16T03:43:06.589Z,88.8
2019-01-16T03:48:06.716Z,89.3
2019-01-16T03:53:06.822Z,89.5
2019-01-16T03:58:06.596Z,90.5
2019-01-16T04:03:06.582Z,90.2
2019-01-16T04:08:06.599Z,89.6
2019-01-16T04:13:06.583Z,90.3
2019-01-16T04:18:06.787Z,90.2
2019-01-16T04:23:06.620Z,91.2
2019-01-16T04:28:06.735Z,91.3
2019-01-16T04:33:06.861Z,91.4
2019-01-16T04:38:06.604Z,91.8
2019-01-16T04:43:06.794Z,91.9
2019-01-16T04:48:06.793Z,92.1
2019-01-16T04:53:06.856Z,92.2
2019-01-16T04:58:06.757Z,92.8
2019-01-16T05:03:06.777Z,92.2
2019-01-16T05:08:06.660Z,92.9
2019-01-16T05:13:06.637Z,93.1
2019-01-16T05:18:06.776Z,93.6
2019-01-16T05:23:06.803Z,94.1
2019-01-16T05:28:06.866Z,94.1
2019-01-16T05:33:06.899Z,94.6
2019-01-16T05:38:06.801Z,94.1
2019-01-16T05:43:06.645Z,95
2019-01-16T05:48:06.669Z,95.3
2019-01-16T05:53:06.825Z,95.8
2019-01-16T05:58:06.691Z,96.1
2019-01-16T06:03:06.904Z,96.1
2019-01-16T06:08:06.682Z,96.5
2019-01-16T06:13:06.848Z,97
2019-01-16T06:18:06.772Z,97.1
2019-01-16T06:23:06.690Z,98.4
2019-01-16T06:28:06.725Z,98.3
2019-01-16T06:33:06.726Z,99.1
2019-01-16T06:38:06.689Z,98.1
2019-01-16T06:43:06.844Z,99.8
2019-01-16T06:48:07.188Z,100
2019-01-16T06:53:06.723Z,100
2019-01-16T06:58:06.708Z,99.9
2019-01-16T07:03:06.957Z,100
2019-01-16T07:08:06.892Z,100
2019-01-16T07:13:06.911Z,100
2019-01-16T07:18:06.756Z,100
2019-01-16T07:23:07.104Z,100
2019-01-16T07:28:06.720Z,100
2019-01-16T07:33:06.750Z,100
2019-01-16T07:38:06.710Z,100
2019-01-16T07:43:06.855Z,100
2019-01-16T07:48:06.712Z,100
2019-01-16T07:53:06.706Z,100
2019-01-16T07:58:07.355Z,100
2019-01-16T08:03:06.720Z,98.8
2019-01-16T08:08:06.721Z,98.9
2019-01-16T08:13:06.967Z,97.4
2019-01-16T08:18:06.889Z,95.9
2019-01-16T08:23:06.740Z,96.4
2019-01-16T08:28:07.000Z,95.3
2019-01-16T08:33:06.750Z,95.1
2019-01-16T08:38:06.762Z,94
2019-01-16T08:43:06.751Z,92.3
2019-01-16T08:48:07.076Z,91.6
2019-01-16T08:53:06.755Z,92.3
2019-01-16T08:58:06.760Z,90.3
2019-01-16T09:03:06.784Z,89.4
2019-01-16T09:08:06.921Z,89.3
2019-01-16T09:13:06.772Z,88.1
2019-01-16T09:18:06.998Z,86.9
2019-01-16T09:23:06.924Z,85.4
2019-01-16T09:28:07.004Z,85.7
2019-01-16T09:33:07.027Z,84.3
2019-01-16T09:38:06.736Z,84.7
2019-01-16T09:43:06.960Z,83.6
2019-01-16T09:48:06.953Z,83.8
2019-01-16T09:53:07.030Z,82.3
2019-01-16T09:58:06.968Z,82.3
2019-01-16T10:03:06.778Z,82.9
2019-01-16T10:08:07.035Z,82.1
2019-01-16T10:13:06.962Z,81
2019-01-16T10:18:06.833Z,81.2
2019-01-16T10:23:06.802Z,81
2019-01-16T10:28:06.925Z,80
2019-01-16T10:33:06.809Z,81.2
2019-01-16T10:38:06.839Z,81.4
2019-01-16T10:43:06.825Z,67.4
2019-01-16T10:48:06.982Z,66.3
2019-01-16T10:53:07.033Z,66.1
2019-01-16T10:58:07.097Z,65.4
2019-01-16T11:03:06.761Z,65.6
2019-01-16T11:08:06.841Z,66.1
2019-01-16T11:13:06.813Z,65.8
2019-01-16T11:18:07.008Z,65.5
2019-01-16T11:23:06.810Z,65
2019-01-16T11:28:07.066Z,65.4
2019-01-16T11:33:06.988Z,66
2019-01-16T11:38:07.021Z,65.3
2019-01-16T11:43:06.857Z,66.1
2019-01-16T11:48:06.852Z,64.9
2019-01-16T11:53:06.848Z,64.9
2019-01-16T11:58:06.991Z,65.8
2019-01-16T12:03:06.987Z,65.1
2019-01-16T12:08:07.026Z,66.1
2019-01-16T12:13:07.086Z,65.5
2019-01-16T12:18:06.870Z,64.7
2019-01-16T12:23:07.028Z,64
2019-01-16T12:28:06.861Z,64.9
2019-01-16T12:33:06.894Z,65.7
2019-01-16T12:38:07.034Z,64.8
2019-01-16T12:43:06.902Z,64.7
2019-01-16T12:48:07.123Z,65.3
2019-01-16T12:53:06.903Z,64.3
2019-01-16T12:58:13.743Z,65
2019-01-16T13:03:07.131Z,64.5
2019-01-16T13:08:06.900Z,64.6
2019-01-16T13:13:07.074Z,64.5
2019-01-16T13:18:07.108Z,65
2019-01-16T13:23:06.911Z,64.8
2019-01-16T13:28:07.068Z,65.5
2019-01-16T13:33:06.886Z,64.8
2019-01-16T13:38:06.895Z,64.9
2019-01-16T13:43:06.921Z,65.3
2019-01-16T13:48:06.955Z,64.9
2019-01-16T13:53:06.923Z,64.8
2019-01-16T13:58:06.938Z,64.9
2019-01-16T14:03:07.088Z,65.4
2019-01-16T14:08:07.146Z,65.2
2019-01-16T14:13:06.944Z,65.7
2019-01-16T14:18:07.088Z,65.2
2019-01-16T14:23:06.942Z,65
2019-01-16T14:28:06.926Z,65.8
2019-01-16T14:33:07.097Z,66
2019-01-16T14:38:06.923Z,66.2
2019-01-16T14:43:07.076Z,66.2
2019-01-16T14:48:07.095Z,66.2
2019-01-16T14:53:07.127Z,66.6
2019-01-16T14:58:07.184Z,66.1
2019-01-16T15:03:06.972Z,66.9
2019-01-16T15:08:06.957Z,67.5
2019-01-16T15:13:06.966Z,67.6
2019-01-16T15:18:07.124Z,68
2019-01-16T15:23:07.082Z,68.9
2019-01-16T15:28:06.958Z,69.3
2019-01-16T15:33:07.095Z,69.2
2019-01-16T15:38:06.976Z,69.8
2019-01-16T15:43:07.117Z,70.7
2019-01-16T15:48:07.235Z,71.8
2019-01-16T15:53:07.139Z,72.5
2019-01-16T15:58:07.169Z,73.2
2019-01-16T16:03:07.005Z,73.6
2019-01-16T16:08:06.996Z,74.7
2019-01-16T16:13:07.130Z,75.6
2019-01-16T16:18:07.002Z,78.9
2019-01-16T16:23:07.264Z,79.2
2019-01-16T16:28:07.202Z,78.4
2019-01-16T16:33:07.123Z,82
2019-01-16T16:38:07.144Z,83.3
2019-01-16T16:43:07.003Z,82.9
2019-01-16T16:48:07.072Z,82.7
2019-01-16T16:53:07.032Z,81.8
2019-01-16T16:58:07.659Z,81.8
2019-01-16T17:03:07.081Z,80.7
2019-01-16T17:08:07.049Z,81.3
2019-01-16T17:13:07.006Z,81.8
2019-01-16T17:18:07.034Z,81.7
2019-01-16T17:23:07.027Z,83
2019-01-16T17:28:08.486Z,82.6
2019-01-16T17:33:07.049Z,82.5
2019-01-16T21:48:38.662Z,91.9
2019-01-16T21:53:38.583Z,92.2
2019-01-16T21:58:38.634Z,92.5
2019-01-16T22:03:38.682Z,93.1
2019-01-16T22:08:38.489Z,92.2
2019-01-16T22:13:38.530Z,91.9
2019-01-16T22:18:38.478Z,93.1
2019-01-16T22:23:38.740Z,93
2019-01-16T22:28:39.673Z,93.4
2019-01-16T22:33:38.483Z,93.7
2019-01-16T22:38:38.499Z,94.1
2019-01-16T22:43:38.487Z,95.5
2019-01-16T22:48:38.610Z,94
2019-01-16T22:53:43.550Z,93.8
2019-01-16T22:58:38.618Z,94
2019-01-16T23:03:38.518Z,95
2019-01-16T23:08:38.502Z,94.5
2019-01-16T23:13:38.652Z,95.1
2019-01-16T23:18:38.523Z,94.8
2019-01-16T23:23:38.678Z,95.2
2019-01-16T23:28:38.570Z,95.7
2019-01-16T23:33:38.660Z,96.8
2019-01-16T23:38:38.738Z,96.9
2019-01-16T23:43:38.751Z,97.4
2019-01-16T23:48:38.532Z,97.8
2019-01-16T23:53:38.795Z,97.7
2019-01-16T23:58:38.543Z,97.1
